createdAt,value
2022-08-17T00:00:34.336Z,24.16
2022-08-17T00:03:10.065Z,24.13
2022-08-17T00:05:41.891Z,24.12
2022-08-17T00:08:09.994Z,23.99
2022-08-17T00:10:38.608Z,23.98
2022-08-17T00:13:08.723Z,23.98
2022-08-17T00:15:36.721Z,23.97
2022-08-17T00:19:06.231Z,23.95
2022-08-17T00:20:55.501Z,23.87
2022-08-17T00:23:24.429Z,23.87
2022-08-17T00:25:53.459Z,23.84
2022-08-17T00:28:22.123Z,23.77
2022-08-17T00:30:53.460Z,23.75
2022-08-17T00:33:26.000Z,23.72
2022-08-17T00:35:54.534Z,23.73
2022-08-17T00:38:23.712Z,23.71
2022-08-17T00:40:55.869Z,23.69
2022-08-17T00:43:30.450Z,23.64
2022-08-17T00:45:58.988Z,23.61
2022-08-17T00:48:30.015Z,23.57
2022-08-17T00:51:04.400Z,23.55
2022-08-17T00:53:34.912Z,23.53
2022-08-17T00:56:07.870Z,23.53
2022-08-17T00:58:38.524Z,23.50
2022-08-17T01:01:10.041Z,23.44
2022-08-17T01:03:40.692Z,23.42
2022-08-17T01:06:10.221Z,23.40
2022-08-17T01:08:40.515Z,23.34
2022-08-17T01:11:09.482Z,23.36
2022-08-17T01:13:41.923Z,23.36
2022-08-17T01:16:16.758Z,23.33
2022-08-17T01:18:48.903Z,23.32
2022-08-17T01:21:23.784Z,23.23
2022-08-17T01:23:53.362Z,23.21
2022-08-17T01:26:21.539Z,23.20
2022-08-17T01:28:55.393Z,23.16
2022-08-17T01:31:26.296Z,23.11
2022-08-17T01:33:54.730Z,23.09
2022-08-17T01:36:22.974Z,23.08
2022-08-17T01:38:52.204Z,23.06
2022-08-17T01:41:22.699Z,23.07
2022-08-17T01:43:55.437Z,23.01
2022-08-17T01:46:28.182Z,22.98
2022-08-17T01:48:57.831Z,22.97
2022-08-17T01:51:27.574Z,22.90
2022-08-17T01:54:00.713Z,22.97
2022-08-17T01:56:31.196Z,22.92
2022-08-17T01:58:59.159Z,22.90
2022-08-17T02:01:29.302Z,22.88
2022-08-17T02:04:00.467Z,22.88
2022-08-17T02:06:31.634Z,22.87
2022-08-17T02:09:16.749Z,22.80
2022-08-17T02:11:46.279Z,22.77
2022-08-17T02:14:14.856Z,22.76
2022-08-17T02:16:43.345Z,22.75
2022-08-17T02:19:13.823Z,22.71
2022-08-17T02:21:43.808Z,22.71
2022-08-17T02:24:16.885Z,22.67
2022-08-17T02:26:46.428Z,22.66
2022-08-17T02:29:15.848Z,22.69
2022-08-17T02:31:44.646Z,22.65
2022-08-17T02:34:12.953Z,22.67
2022-08-17T02:36:40.930Z,22.67
2022-08-17T02:39:11.075Z,22.66
2022-08-17T02:41:41.212Z,22.61
2022-08-17T02:44:09.160Z,22.61
2022-08-17T02:46:37.403Z,22.59
2022-08-17T02:49:06.327Z,22.56
2022-08-17T02:51:35.345Z,22.57
2022-08-17T02:54:39.717Z,22.61
2022-08-17T02:56:53.620Z,22.52
2022-08-17T02:59:21.569Z,22.52
2022-08-17T03:01:49.589Z,22.42
2022-08-17T03:04:17.555Z,22.44
2022-08-17T03:06:45.548Z,22.47
2022-08-17T03:09:13.408Z,22.46
2022-08-17T03:11:41.477Z,22.44
2022-08-17T03:14:10.884Z,22.44
2022-08-17T03:16:38.826Z,22.43
2022-08-17T03:19:07.203Z,22.45
2022-08-17T03:21:35.201Z,22.46
2022-08-17T03:24:08.766Z,22.41
2022-08-17T03:26:37.256Z,22.38
2022-08-17T03:29:05.434Z,22.35
2022-08-17T03:31:36.949Z,22.32
2022-08-17T03:34:05.384Z,22.29
2022-08-17T03:36:36.220Z,22.25
2022-08-17T03:39:04.300Z,22.26
2022-08-17T03:41:32.290Z,22.27
2022-08-17T03:44:00.299Z,22.26
2022-08-17T03:46:45.676Z,22.19
2022-08-17T03:49:32.194Z,22.16
2022-08-17T03:52:17.630Z,22.20
2022-08-17T03:55:04.142Z,22.14
2022-08-17T03:57:32.987Z,22.11
2022-08-17T04:00:00.956Z,22.07
2022-08-17T04:02:31.742Z,22.11
2022-08-17T04:05:01.750Z,22.05
2022-08-17T04:07:31.951Z,22.03
2022-08-17T04:10:00.615Z,22.00
2022-08-17T04:12:31.075Z,22.02
2022-08-17T04:14:59.321Z,21.99
2022-08-17T04:17:29.179Z,22.00
2022-08-17T04:19:57.412Z,22.01
2022-08-17T04:22:31.963Z,21.97
2022-08-17T04:25:04.158Z,21.99
2022-08-17T04:27:32.201Z,22.03
2022-08-17T04:30:00.115Z,21.96
2022-08-17T04:33:00.469Z,22.00
2022-08-17T04:35:20.243Z,22.00
2022-08-17T04:37:49.930Z,22.07
2022-08-17T04:40:35.641Z,22.08
2022-08-17T04:43:05.346Z,22.06
2022-08-17T04:45:33.259Z,21.99
2022-08-17T04:48:01.537Z,22.05
2022-08-17T04:50:29.447Z,21.99
2022-08-17T04:52:58.929Z,21.92
2022-08-17T04:55:27.285Z,21.87
2022-08-17T04:57:55.622Z,21.98
2022-08-17T05:00:25.776Z,22.12
2022-08-17T05:02:56.341Z,22.01
2022-08-17T05:05:27.066Z,22.00
2022-08-17T05:07:56.338Z,21.95
2022-08-17T05:10:27.520Z,22.02
2022-08-17T05:12:59.837Z,22.13
2022-08-17T05:15:28.422Z,22.14
2022-08-17T05:18:01.440Z,22.23
2022-08-17T05:20:29.995Z,22.27
2022-08-17T05:23:00.328Z,22.43
2022-08-17T05:25:36.254Z,22.55
2022-08-17T05:28:06.656Z,22.68
2022-08-17T05:30:35.931Z,22.77
2022-08-17T05:33:06.203Z,22.82
2022-08-17T05:35:36.725Z,22.92
2022-08-17T05:38:04.905Z,22.93
2022-08-17T05:40:34.123Z,23.02
2022-08-17T05:43:07.809Z,23.00
2022-08-17T05:45:54.533Z,22.93
2022-08-17T05:48:35.613Z,23.00
2022-08-17T05:51:24.977Z,23.19
2022-08-17T05:54:02.275Z,23.21
2022-08-17T05:56:49.618Z,23.24
2022-08-17T05:59:26.413Z,23.33
2022-08-17T06:01:59.443Z,23.33
2022-08-17T06:04:32.857Z,23.48
2022-08-17T06:07:11.990Z,23.56
2022-08-17T06:09:47.906Z,23.68
2022-08-17T06:12:38.465Z,23.74
2022-08-17T06:15:23.906Z,23.82
2022-08-17T06:17:56.631Z,24.03
2022-08-17T06:20:28.744Z,24.20
2022-08-17T06:23:06.880Z,24.40
2022-08-17T06:25:39.378Z,24.50
2022-08-17T06:28:14.820Z,24.55
2022-08-17T06:30:59.845Z,24.67
2022-08-17T06:33:34.246Z,24.68
2022-08-17T06:36:15.814Z,24.87
2022-08-17T06:38:55.756Z,25.03
2022-08-17T06:41:28.937Z,25.21
2022-08-17T06:44:11.638Z,25.41
2022-08-17T06:47:09.063Z,25.44
2022-08-17T06:49:44.340Z,25.59
2022-08-17T06:52:42.136Z,25.84
2022-08-17T06:55:18.598Z,26.02
2022-08-17T06:57:50.607Z,26.19
2022-08-17T07:00:23.895Z,26.45
2022-08-17T07:02:58.438Z,27.14
2022-08-17T07:05:31.671Z,28.16
2022-08-17T07:08:05.734Z,29.22
2022-08-17T07:10:45.669Z,30.30
2022-08-17T07:13:34.883Z,31.36
2022-08-17T07:16:18.163Z,31.72
2022-08-17T07:18:47.179Z,32.23
2022-08-17T07:21:27.544Z,32.49
2022-08-17T07:24:30.162Z,33.52
2022-08-17T07:27:10.443Z,32.42
2022-08-17T07:29:41.844Z,31.62
2022-08-17T07:32:13.564Z,32.57
2022-08-17T07:35:11.306Z,32.96
2022-08-17T07:37:40.909Z,34.13
2022-08-17T07:40:35.562Z,35.05
2022-08-17T07:43:23.484Z,35.07
2022-08-17T07:46:17.191Z,34.74
2022-08-17T07:48:49.713Z,34.57
2022-08-17T07:51:25.243Z,34.61
2022-08-17T07:53:53.893Z,35.20
2022-08-17T07:56:41.248Z,34.83
2022-08-17T07:59:15.588Z,35.01
2022-08-17T08:01:48.035Z,34.97
2022-08-17T08:07:28.657Z,34.01
2022-08-17T08:10:07.766Z,33.80
2022-08-17T08:12:37.813Z,33.64
2022-08-17T08:15:15.418Z,33.62
2022-08-17T08:17:53.284Z,34.04
2022-08-17T08:20:52.072Z,34.38
2022-08-17T08:23:33.513Z,33.90
2022-08-17T08:26:18.291Z,34.27
2022-08-17T08:28:55.824Z,34.14
2022-08-17T08:31:28.866Z,34.06
2022-08-17T08:34:09.269Z,34.79
2022-08-17T08:37:17.800Z,35.19
2022-08-17T08:40:12.229Z,35.26
2022-08-17T08:42:49.952Z,35.52
2022-08-17T08:45:24.816Z,35.78
2022-08-17T08:48:12.729Z,35.56
2022-08-17T08:51:08.586Z,35.54
2022-08-17T08:53:49.668Z,35.83
2022-08-17T08:56:25.103Z,36.50
2022-08-17T08:59:01.905Z,37.09
2022-08-17T09:01:38.907Z,37.73
2022-08-17T09:04:26.053Z,38.15
2022-08-17T09:07:09.735Z,38.01
2022-08-17T09:09:48.273Z,37.61
2022-08-17T09:12:23.442Z,37.62
2022-08-17T09:14:59.560Z,37.74
2022-08-17T09:17:36.852Z,38.43
2022-08-17T09:20:11.579Z,37.64
2022-08-17T09:23:03.175Z,36.74
2022-08-17T09:25:36.229Z,37.35
2022-08-17T09:28:07.943Z,38.27
2022-08-17T09:30:42.362Z,38.84
2022-08-17T09:33:12.661Z,38.37
2022-08-17T09:35:45.406Z,37.38
2022-08-17T09:38:22.481Z,37.47
2022-08-17T09:40:57.933Z,37.47
2022-08-17T09:43:35.360Z,36.86
2022-08-17T09:46:10.351Z,36.46
2022-08-17T09:48:43.132Z,36.21
2022-08-17T09:51:16.739Z,35.78
2022-08-17T09:53:44.939Z,35.32
2022-08-17T09:56:32.790Z,34.76
2022-08-17T09:59:28.439Z,34.32
2022-08-17T10:02:30.149Z,33.86
2022-08-17T10:05:04.817Z,33.93
2022-08-17T10:07:38.116Z,34.09
2022-08-17T10:10:14.666Z,34.32
2022-08-17T10:12:53.235Z,34.51
2022-08-17T10:15:36.742Z,34.45
2022-08-17T10:18:19.981Z,34.72
2022-08-17T10:21:14.305Z,34.67
2022-08-17T10:24:03.415Z,34.49
2022-08-17T10:26:40.532Z,34.54
2022-08-17T10:29:29.518Z,34.31
2022-08-17T10:32:12.513Z,34.62
2022-08-17T10:35:16.106Z,34.46
2022-08-17T10:38:03.961Z,34.20
2022-08-17T10:40:38.222Z,33.91
2022-08-17T10:43:24.937Z,33.86
2022-08-17T10:46:27.722Z,33.79
2022-08-17T10:49:16.079Z,33.87
2022-08-17T10:51:45.964Z,33.75
2022-08-17T10:54:36.272Z,33.52
2022-08-17T10:57:24.078Z,33.43
2022-08-17T10:59:54.044Z,33.41
2022-08-17T11:02:31.585Z,33.03
2022-08-17T11:05:15.678Z,33.25
2022-08-17T11:08:05.520Z,33.22
2022-08-17T11:10:59.322Z,33.03
2022-08-17T11:13:40.997Z,33.16
2022-08-17T11:16:26.826Z,33.11
2022-08-17T11:19:28.630Z,32.88
2022-08-17T11:22:34.061Z,32.73
2022-08-17T11:25:16.770Z,32.81
2022-08-17T11:27:47.280Z,32.81
2022-08-17T11:30:36.101Z,32.69
2022-08-17T11:33:42.751Z,32.63
2022-08-17T11:36:23.215Z,32.68
2022-08-17T11:39:00.996Z,32.58
2022-08-17T11:41:39.010Z,32.84
2022-08-17T11:44:38.921Z,32.89
2022-08-17T11:47:32.877Z,32.87
2022-08-17T11:50:45.678Z,33.19
2022-08-17T11:54:03.569Z,33.12
2022-08-17T11:56:52.885Z,32.52
2022-08-17T11:59:56.002Z,32.60
2022-08-17T12:02:39.051Z,32.47
2022-08-17T12:05:32.346Z,32.56
2022-08-17T12:08:09.069Z,32.61
2022-08-17T12:10:49.944Z,32.80
2022-08-17T12:13:20.336Z,32.87
2022-08-17T12:15:52.712Z,32.54
2022-08-17T12:18:22.499Z,32.68
2022-08-17T12:21:15.623Z,32.79
2022-08-17T12:23:56.205Z,32.58
2022-08-17T12:26:27.729Z,32.45
2022-08-17T12:29:01.023Z,32.42
2022-08-17T12:31:32.486Z,32.31
2022-08-17T12:34:00.646Z,32.40
2022-08-17T12:36:29.889Z,31.92
2022-08-17T12:39:14.169Z,31.97
2022-08-17T12:41:50.849Z,31.98
2022-08-17T12:44:23.252Z,32.09
2022-08-17T12:46:54.852Z,32.15
2022-08-17T12:49:33.187Z,32.13
2022-08-17T12:52:24.645Z,32.18
2022-08-17T12:54:57.009Z,31.96
2022-08-17T12:57:28.174Z,31.89
2022-08-17T13:00:00.913Z,32.11
2022-08-17T13:02:41.011Z,32.17
2022-08-17T13:05:19.074Z,32.20
2022-08-17T13:07:47.814Z,31.98
2022-08-17T13:10:24.834Z,32.16
2022-08-17T13:12:56.150Z,32.10
2022-08-17T13:15:35.144Z,32.10
2022-08-17T13:18:07.790Z,32.14
2022-08-17T13:20:37.151Z,32.04
2022-08-17T13:23:12.391Z,32.16
2022-08-17T13:25:40.953Z,32.18
2022-08-17T13:28:30.769Z,32.24
2022-08-17T13:31:33.033Z,32.28
2022-08-17T13:34:20.329Z,32.28
2022-08-17T13:36:51.324Z,32.23
2022-08-17T13:39:21.895Z,32.15
2022-08-17T13:41:53.163Z,32.09
2022-08-17T13:44:36.997Z,32.03
2022-08-17T13:47:15.605Z,31.96
2022-08-17T13:49:48.990Z,31.84
2022-08-17T13:52:35.250Z,31.84
2022-08-17T13:55:10.025Z,31.86
2022-08-17T13:57:38.403Z,31.87
2022-08-17T14:00:13.244Z,31.82
2022-08-17T14:02:42.856Z,31.77
2022-08-17T14:05:11.022Z,31.75
2022-08-17T14:07:40.731Z,31.76
2022-08-17T14:10:14.380Z,31.72
2022-08-17T14:12:44.547Z,31.85
2022-08-17T14:15:15.366Z,31.78
2022-08-17T14:17:44.991Z,31.90
2022-08-17T14:20:14.631Z,31.94
2022-08-17T14:22:46.295Z,32.00
2022-08-17T14:25:16.587Z,31.90
2022-08-17T14:27:52.273Z,31.94
2022-08-17T14:30:23.879Z,32.03
2022-08-17T14:32:53.694Z,31.91
2022-08-17T14:35:23.976Z,31.93
2022-08-17T14:37:53.033Z,31.96
2022-08-17T14:40:24.762Z,31.93
2022-08-17T14:42:54.396Z,31.91
2022-08-17T14:45:31.494Z,31.93
2022-08-17T14:48:05.791Z,32.02
2022-08-17T14:50:35.369Z,31.90
2022-08-17T14:53:04.639Z,31.88
2022-08-17T14:55:33.665Z,31.85
2022-08-17T14:58:02.106Z,31.89
2022-08-17T15:00:30.137Z,31.80
2022-08-17T15:03:00.204Z,31.82
2022-08-17T15:05:32.550Z,31.81
2022-08-17T15:08:01.107Z,31.83
2022-08-17T15:10:30.457Z,31.61
2022-08-17T15:13:00.430Z,31.60
2022-08-17T15:15:29.559Z,31.45
2022-08-17T15:17:59.935Z,31.37
2022-08-17T15:20:31.176Z,31.37
2022-08-17T15:23:00.010Z,31.26
2022-08-17T15:25:31.883Z,31.21
2022-08-17T15:28:00.482Z,31.25
2022-08-17T15:30:29.434Z,31.21
2022-08-17T15:32:59.006Z,31.21
2022-08-17T15:35:33.535Z,31.04
2022-08-17T15:38:08.343Z,31.07
2022-08-17T15:40:46.830Z,30.97
2022-08-17T15:43:16.958Z,30.96
2022-08-17T15:45:59.983Z,30.88
2022-08-17T15:48:41.066Z,30.77
2022-08-17T15:51:13.226Z,30.64
2022-08-17T15:53:42.480Z,30.49
2022-08-17T15:56:11.319Z,30.65
2022-08-17T15:58:42.118Z,30.84
2022-08-17T16:01:14.756Z,30.90
2022-08-17T16:04:04.035Z,30.79
2022-08-17T16:06:36.464Z,30.75
2022-08-17T16:09:05.057Z,30.73
2022-08-17T16:11:33.027Z,30.66
2022-08-17T16:14:01.246Z,30.56
2022-08-17T16:16:31.367Z,30.51
2022-08-17T16:18:59.446Z,30.41
2022-08-17T16:21:31.258Z,30.45
2022-08-17T16:24:12.787Z,30.41
2022-08-17T16:26:42.420Z,30.56
2022-08-17T16:29:10.756Z,30.38
2022-08-17T16:31:41.552Z,30.48
2022-08-17T16:34:16.935Z,30.34
2022-08-17T16:36:55.150Z,30.16
2022-08-17T16:39:27.502Z,30.03
2022-08-17T16:41:56.187Z,29.99
2022-08-17T16:44:25.911Z,29.82
2022-08-17T16:46:54.155Z,29.74
2022-08-17T16:49:35.509Z,29.59
2022-08-17T16:52:05.969Z,29.54
2022-08-17T16:54:36.417Z,29.62
2022-08-17T16:57:05.561Z,29.64
2022-08-17T16:59:42.134Z,29.36
2022-08-17T17:02:15.855Z,29.47
2022-08-17T17:04:51.309Z,29.54
2022-08-17T17:07:38.868Z,29.57
2022-08-17T17:10:11.726Z,29.46
2022-08-17T17:13:01.349Z,29.40
2022-08-17T17:15:41.541Z,29.43
2022-08-17T17:18:13.413Z,29.28
2022-08-17T17:20:48.950Z,29.35
2022-08-17T17:23:33.292Z,29.14
2022-08-17T17:26:11.157Z,28.99
2022-08-17T17:28:48.836Z,28.77
2022-08-17T17:31:19.453Z,28.77
2022-08-17T17:33:50.579Z,28.75
2022-08-17T17:36:26.715Z,28.75
2022-08-17T17:38:59.270Z,28.75
2022-08-17T17:41:34.023Z,28.67
2022-08-17T17:44:05.959Z,28.56
2022-08-17T17:46:39.649Z,28.58
2022-08-17T17:49:10.195Z,28.48
2022-08-17T17:52:08.614Z,28.48
2022-08-17T17:55:01.992Z,28.32
2022-08-17T17:57:45.622Z,28.32
2022-08-17T18:00:16.661Z,28.25
2022-08-17T18:02:56.914Z,28.01
2022-08-17T18:05:46.038Z,27.99
2022-08-17T18:08:34.097Z,27.96
2022-08-17T18:11:15.265Z,27.92
2022-08-17T18:14:10.750Z,27.78
2022-08-17T18:16:42.839Z,27.79
2022-08-17T18:19:14.244Z,27.71
2022-08-17T18:21:45.976Z,27.77
2022-08-17T18:24:14.996Z,27.69
2022-08-17T18:26:51.544Z,27.68
2022-08-17T18:29:44.191Z,27.74
2022-08-17T18:32:34.877Z,27.60
2022-08-17T18:35:28.340Z,27.62
2022-08-17T18:37:58.963Z,27.57
2022-08-17T18:40:37.770Z,27.60
2022-08-17T18:43:13.447Z,27.38
2022-08-17T18:45:47.381Z,26.98
2022-08-17T18:48:23.089Z,26.60
2022-08-17T18:50:53.610Z,26.15
2022-08-17T18:53:34.060Z,25.90
2022-08-17T18:56:25.802Z,25.58
2022-08-17T18:59:06.342Z,25.37
2022-08-17T19:01:52.770Z,25.25
2022-08-17T19:04:34.807Z,25.11
2022-08-17T19:07:06.866Z,25.13
2022-08-17T19:09:38.135Z,24.93
2022-08-17T19:12:10.023Z,24.88
2022-08-17T19:14:38.391Z,24.74
2022-08-17T19:17:15.326Z,24.54
2022-08-17T19:19:51.354Z,24.38
2022-08-17T19:22:28.434Z,24.41
2022-08-17T19:25:03.962Z,24.31
2022-08-17T19:27:43.700Z,24.02
2022-08-17T19:30:16.579Z,24.07
2022-08-17T19:32:46.034Z,24.11
2022-08-17T19:35:17.562Z,24.07
2022-08-17T19:37:57.491Z,23.97
2022-08-17T19:40:52.440Z,23.91
2022-08-17T19:43:31.832Z,23.74
2022-08-17T19:46:06.170Z,23.73
2022-08-17T19:48:48.421Z,23.55
2022-08-17T19:51:21.826Z,23.62
2022-08-17T19:54:06.358Z,23.53
2022-08-17T19:56:43.563Z,23.50
2022-08-17T19:59:17.155Z,23.48
2022-08-17T20:01:52.097Z,23.43
2022-08-17T20:04:37.511Z,23.43
2022-08-17T20:07:10.976Z,23.36
2022-08-17T20:09:44.348Z,23.41
2022-08-17T20:12:17.872Z,23.52
2022-08-17T20:14:53.733Z,23.51
2022-08-17T20:17:28.420Z,23.54
2022-08-17T20:20:07.470Z,23.54
2022-08-17T20:22:54.946Z,23.55
2022-08-17T20:25:31.830Z,23.53
2022-08-17T20:28:07.497Z,23.49
2022-08-17T20:30:38.898Z,23.44
2022-08-17T20:33:12.425Z,23.50
2022-08-17T20:36:03.387Z,23.59
2022-08-17T20:38:43.702Z,23.53
2022-08-17T20:41:15.404Z,23.51
2022-08-17T20:43:49.016Z,23.45
2022-08-17T20:46:24.855Z,23.49
2022-08-17T20:48:56.506Z,23.52
2022-08-17T20:51:33.638Z,23.47
2022-08-17T20:54:23.947Z,23.54
2022-08-17T20:56:57.812Z,23.49
2022-08-17T20:59:59.459Z,23.52
2022-08-17T21:02:29.739Z,23.52
2022-08-17T21:05:08.015Z,23.49
2022-08-17T21:07:56.020Z,23.51
2022-08-17T21:10:37.788Z,23.39
2022-08-17T21:13:32.354Z,23.35
2022-08-17T21:16:08.462Z,23.31
2022-08-17T21:18:42.992Z,23.19
2022-08-17T21:21:24.080Z,23.12
2022-08-17T21:24:11.866Z,23.17
2022-08-17T21:26:52.017Z,23.18
2022-08-17T21:29:32.562Z,23.16
2022-08-17T21:32:24.361Z,23.06
2022-08-17T21:35:26.434Z,22.99
2022-08-17T21:38:02.447Z,22.97
2022-08-17T21:40:35.382Z,22.91
2022-08-17T21:43:18.250Z,22.89
2022-08-17T21:45:57.784Z,22.87
2022-08-17T21:48:27.143Z,22.94
2022-08-17T21:51:03.847Z,22.97
2022-08-17T21:53:39.280Z,22.98
2022-08-17T21:56:12.123Z,23.01
2022-08-17T21:58:46.625Z,23.03
2022-08-17T22:01:25.407Z,23.01
2022-08-17T22:04:03.374Z,22.87
2022-08-17T22:06:37.294Z,22.81
2022-08-17T22:09:16.305Z,22.89
2022-08-17T22:12:14.242Z,22.88
2022-08-17T22:14:52.198Z,22.78
2022-08-17T22:17:24.903Z,22.74
2022-08-17T22:19:55.173Z,22.75
2022-08-17T22:22:30.394Z,22.71
2022-08-17T22:25:01.799Z,22.70
2022-08-17T22:27:48.868Z,22.81
2022-08-17T22:30:28.298Z,22.75
2022-08-17T22:32:57.223Z,22.79
2022-08-17T22:35:33.675Z,22.67
2022-08-17T22:38:26.568Z,22.59
2022-08-17T22:40:56.840Z,22.52
2022-08-17T22:43:31.394Z,22.53
2022-08-17T22:46:02.997Z,22.48
2022-08-17T22:48:31.497Z,22.44
2022-08-17T22:51:13.669Z,22.44
2022-08-17T22:54:05.062Z,22.41
2022-08-17T22:56:50.864Z,22.34
2022-08-17T22:59:43.861Z,22.37
2022-08-17T23:02:30.560Z,22.42
2022-08-17T23:05:21.494Z,22.36
2022-08-17T23:07:53.848Z,22.32
2022-08-17T23:10:21.838Z,22.27
2022-08-17T23:12:49.832Z,22.22
2022-08-17T23:15:20.213Z,22.21
2022-08-17T23:17:48.470Z,22.17
2022-08-17T23:20:17.953Z,22.23
2022-08-17T23:22:52.312Z,22.09
2022-08-17T23:25:26.580Z,22.15
2022-08-17T23:27:55.110Z,22.13
2022-08-17T23:30:25.533Z,22.10
2022-08-17T23:32:54.518Z,22.05
2022-08-17T23:35:38.982Z,22.07
2022-08-17T23:38:09.843Z,22.09
2022-08-17T23:40:39.595Z,22.08
2022-08-17T23:43:23.894Z,22.18
2022-08-17T23:45:55.217Z,22.16
2022-08-17T23:48:35.844Z,22.16
2022-08-17T23:51:09.212Z,22.18
2022-08-17T23:53:40.373Z,22.13
2022-08-17T23:56:11.183Z,22.17
2022-08-17T23:58:43.892Z,22.19
